Time;durP1;ratioP1;P1;durP2;ratioP2;P2;SDS_P1;SDS_P2;PMS_P1;PMS_P2;Temp;Humidity;BMP_temperature;BMP_pressure;BME280_temperature;BME280_humidity;BME280_pressure;Samples;Min_cycle;Max_cycle;Signal;HPM_P1;HPM_P2
2021/01/02 00:02:54;;;;;;;12.05;4.65;;;2.40;1.00;;;;;;5013066;28;20216;-74
2021/01/02 00:06:09;;;;;;;8.90;4.15;;;2.20;1.00;;;;;;4998830;28;20308;-80
2021/01/02 00:09:03;;;;;;;6.50;3.40;;;2.20;1.00;;;;;;4954258;29;20312;-80
2021/01/02 00:12:28;;;;;;;6.60;3.38;;;2.20;1.00;;;;;;4953880;29;20203;-80
2021/01/02 00:15:17;;;;;;;8.27;4.15;;;2.20;1.00;;;;;;4876023;29;20197;-80
2021/01/02 00:18:16;;;;;;;7.75;3.72;;;2.00;1.00;;;;;;4897038;29;20185;-80
2021/01/02 00:21:01;;;;;;;6.78;4.13;;;1.90;1.00;;;;;;4904592;29;20605;-74
2021/01/02 00:23:58;;;;;;;9.90;4.57;;;1.90;1.00;;;;;;4915854;29;20195;-75
2021/01/02 00:26:30;;;;;;;8.75;5.00;;;1.90;1.00;;;;;;4910904;29;20247;-75
2021/01/02 00:28:56;;;;;;;8.93;4.20;;;1.90;1.00;;;;;;4909765;29;20274;-75
2021/01/02 00:31:52;;;;;;;9.35;3.85;;;1.90;1.00;;;;;;4911585;29;20228;-75
2021/01/02 00:34:52;;;;;;;9.73;4.55;;;1.90;1.00;;;;;;4898183;29;20176;-75
2021/01/02 00:37:20;;;;;;;8.52;3.70;;;1.80;1.00;;;;;;4896966;29;20193;-74
2021/01/02 00:40:04;;;;;;;7.85;3.75;;;1.90;1.00;;;;;;4897341;29;20252;-74
2021/01/02 00:42:33;;;;;;;6.78;3.80;;;1.90;1.00;;;;;;4877755;29;20220;-74
2021/01/02 00:45:05;;;;;;;4.68;3.03;;;2.00;1.00;;;;;;4918055;29;20309;-75
2021/01/02 00:47:38;;;;;;;6.88;3.85;;;1.90;1.00;;;;;;4954815;28;20187;-75
2021/01/02 00:50:06;;;;;;;5.90;3.63;;;1.90;1.00;;;;;;5009646;28;20180;-75
2021/01/02 00:53:03;;;;;;;9.00;3.92;;;2.00;1.00;;;;;;5011301;28;20667;-75
2021/01/02 00:55:42;;;;;;;10.40;4.90;;;1.90;1.00;;;;;;4995793;28;20632;-75
2021/01/02 00:58:16;;;;;;;5.07;3.72;;;1.90;1.00;;;;;;4995005;28;20272;-74
2021/01/02 01:00:43;;;;;;;7.20;4.40;;;2.00;1.00;;;;;;4983626;28;20197;-75
2021/01/02 01:03:27;;;;;;;4.03;3.00;;;2.00;1.00;;;;;;5006285;28;20177;-75
2021/01/02 01:06:15;;;;;;;6.28;3.72;;;2.00;1.00;;;;;;5010785;28;20584;-75
2021/01/02 01:08:45;;;;;;;7.47;3.33;;;2.00;1.00;;;;;;5011088;28;20271;-75
2021/01/02 01:11:12;;;;;;;5.72;3.17;;;2.00;1.00;;;;;;5009075;28;20201;-75
2021/01/02 01:13:39;;;;;;;7.07;3.65;;;2.00;1.00;;;;;;5013845;28;20255;-75
2021/01/02 01:16:05;;;;;;;5.97;2.80;;;2.10;1.00;;;;;;5035172;28;20184;-75
2021/01/02 01:18:45;;;;;;;9.27;4.20;;;2.10;1.00;;;;;;5033694;28;20164;-74
2021/01/02 01:21:16;;;;;;;6.78;3.15;;;2.20;1.00;;;;;;5050778;28;20175;-75
2021/01/02 01:24:33;;;;;;;10.30;4.20;;;2.20;1.00;;;;;;5053296;28;20203;-74
2021/01/02 01:27:13;;;;;;;6.60;3.47;;;2.30;1.00;;;;;;5025577;28;20207;-74
2021/01/02 01:29:48;;;;;;;8.18;3.50;;;2.40;1.00;;;;;;5027620;28;20195;-75
2021/01/02 01:32:29;;;;;;;6.53;3.50;;;2.40;1.00;;;;;;5027846;28;20200;-75
2021/01/02 01:35:11;;;;;;;8.68;3.60;;;2.40;1.00;;;;;;5013635;28;20207;-75
2021/01/02 01:37:41;;;;;;;6.32;4.40;;;2.40;1.00;;;;;;5018591;28;20196;-80
2021/01/02 01:40:23;;;;;;;10.75;5.15;;;2.40;1.00;;;;;;5035326;28;20163;-80
2021/01/02 01:43:02;;;;;;;10.30;5.30;;;2.40;1.00;;;;;;5016758;28;20199;-80
2021/01/02 01:45:50;;;;;;;6.57;4.15;;;2.40;1.00;;;;;;5035176;28;20172;-80
2021/01/02 01:48:25;;;;;;;8.48;3.92;;;2.40;1.00;;;;;;5014978;28;20193;-80
2021/01/02 01:51:22;;;;;;;9.95;4.45;;;2.40;1.00;;;;;;5015892;28;20234;-74
2021/01/02 01:53:55;;;;;;;5.60;3.35;;;2.50;1.00;;;;;;5035347;28;20169;-75
2021/01/02 01:56:48;;;;;;;10.05;4.78;;;2.50;1.00;;;;;;5035070;28;20207;-75
2021/01/02 01:59:44;;;;;;;7.90;4.47;;;2.50;1.00;;;;;;5030161;28;20627;-75
2021/01/02 02:02:47;;;;;;;8.10;4.32;;;2.50;1.00;;;;;;5023723;28;20193;-74
2021/01/02 02:05:23;;;;;;;8.57;3.95;;;2.60;1.00;;;;;;5029517;28;20172;-75
2021/01/02 02:08:03;;;;;;;9.70;4.60;;;2.60;1.00;;;;;;5018313;28;20290;-80
2021/01/02 02:10:34;;;;;;;8.25;4.20;;;2.60;1.00;;;;;;5004018;28;20192;-80
2021/01/02 02:13:20;;;;;;;7.03;4.25;;;2.60;1.00;;;;;;5021200;28;20291;-80
2021/01/02 02:15:53;;;;;;;11.52;5.35;;;2.70;1.00;;;;;;5018826;28;20198;-80
2021/01/02 02:18:29;;;;;;;11.07;4.78;;;2.70;1.00;;;;;;5018142;28;20222;-80
2021/01/02 02:21:11;;;;;;;10.85;4.97;;;2.70;1.00;;;;;;5034579;28;20196;-80
2021/01/02 02:23:50;;;;;;;7.55;4.10;;;2.60;1.00;;;;;;5034980;28;20647;-80
2021/01/02 02:26:30;;;;;;;8.20;5.03;;;2.60;1.00;;;;;;5030725;28;20196;-80
2021/01/02 02:29:13;;;;;;;8.73;3.67;;;2.60;1.00;;;;;;5020923;28;20180;-80
2021/01/02 02:31:46;;;;;;;5.50;3.50;;;2.60;1.00;;;;;;5014656;28;20192;-74
2021/01/02 02:34:13;;;;;;;7.68;4.20;;;2.70;1.00;;;;;;5011663;28;20176;-75
2021/01/02 02:36:39;;;;;;;8.07;4.07;;;2.70;1.00;;;;;;5015199;28;20173;-80
2021/01/02 02:39:13;;;;;;;9.15;5.22;;;2.70;1.00;;;;;;5037493;28;20179;-80
2021/01/02 02:42:00;;;;;;;8.38;3.97;;;2.60;1.00;;;;;;5056266;28;20163;-80
2021/01/02 02:44:45;;;;;;;7.18;4.40;;;2.60;1.00;;;;;;5054121;28;20164;-80
2021/01/02 02:47:31;;;;;;;8.25;4.88;;;2.70;1.00;;;;;;5036151;28;20619;-80
2021/01/02 02:50:44;;;;;;;9.68;4.05;;;2.60;1.00;;;;;;5036396;28;20167;-80
2021/01/02 02:53:12;;;;;;;4.70;3.38;;;2.60;1.00;;;;;;5042640;28;20167;-75
2021/01/02 02:55:45;;;;;;;9.73;4.45;;;2.70;1.00;;;;;;5054965;28;20190;-75
2021/01/02 02:58:15;;;;;;;8.82;4.65;;;2.70;1.00;;;;;;5053441;28;20192;-74
2021/01/02 03:00:45;;;;;;;8.48;4.03;;;2.70;1.00;;;;;;5056484;28;20211;-75
2021/01/02 03:03:15;;;;;;;15.15;4.82;;;2.70;1.00;;;;;;5041699;28;20697;-74
2021/01/02 03:05:41;;;;;;;8.15;3.53;;;2.70;1.00;;;;;;5054744;28;20195;-75
2021/01/02 03:08:13;;;;;;;10.18;5.00;;;2.70;1.00;;;;;;5056956;28;20167;-80
2021/01/02 03:10:52;;;;;;;10.40;4.82;;;2.70;1.00;;;;;;5048763;28;20164;-80
2021/01/02 03:13:18;;;;;;;14.15;6.13;;;2.80;1.00;;;;;;5047429;28;20168;-80
2021/01/02 03:15:45;;;;;;;12.90;3.90;;;2.70;1.00;;;;;;5045564;28;20271;-80
2021/01/02 03:18:11;;;;;;;9.63;4.28;;;2.80;1.00;;;;;;5056256;28;20958;-80
2021/01/02 03:20:45;;;;;;;13.63;5.03;;;2.80;1.00;;;;;;5050064;28;20549;-80
2021/01/02 03:23:21;;;;;;;8.80;4.95;;;2.80;1.00;;;;;;5041654;28;20187;-75
2021/01/02 03:26:04;;;;;;;11.13;5.15;;;2.80;1.00;;;;;;5045173;28;20187;-80
2021/01/02 03:29:05;;;;;;;6.65;4.13;;;2.80;1.00;;;;;;5054142;28;20171;-80
2021/01/02 03:31:30;;;;;;;8.45;4.55;;;2.80;1.00;;;;;;5012803;28;20245;-80
2021/01/02 03:33:56;;;;;;;8.37;4.20;;;2.80;1.00;;;;;;5013766;28;20264;-80
2021/01/02 03:36:50;;;;;;;10.10;5.20;;;2.70;1.00;;;;;;4996982;28;20177;-80
2021/01/02 03:39:33;;;;;;;7.22;4.15;;;2.70;1.00;;;;;;5007108;28;20178;-80
2021/01/02 03:42:36;;;;;;;8.75;4.35;;;2.70;1.00;;;;;;5011170;28;20185;-80
2021/01/02 03:45:32;;;;;;;6.97;4.72;;;2.70;1.00;;;;;;4996875;28;20187;-80
2021/01/02 03:48:32;;;;;;;13.77;4.35;;;2.70;1.00;;;;;;5013373;28;20169;-80
2021/01/02 03:51:03;;;;;;;16.17;5.65;;;2.80;1.00;;;;;;5012771;28;20615;-80
2021/01/02 03:53:56;;;;;;;15.70;6.05;;;2.80;1.00;;;;;;5013332;28;20180;-80
2021/01/02 03:56:33;;;;;;;9.35;4.63;;;2.80;1.00;;;;;;5013089;28;20188;-80
2021/01/02 03:59:03;;;;;;;12.15;4.50;;;2.90;1.00;;;;;;5012889;28;20185;-80
2021/01/02 04:01:28;;;;;;;15.13;5.65;;;2.90;1.00;;;;;;5012146;28;20232;-80
2021/01/02 04:03:54;;;;;;;12.90;4.27;;;2.90;1.00;;;;;;5012217;28;20212;-80
2021/01/02 04:06:29;;;;;;;11.47;4.50;;;2.90;1.00;;;;;;5035233;28;20200;-80
2021/01/02 04:08:55;;;;;;;14.45;5.70;;;3.00;1.00;;;;;;5034820;28;20176;-80
2021/01/02 04:11:27;;;;;;;18.10;5.83;;;2.90;1.00;;;;;;5034759;28;20218;-80
2021/01/02 04:14:03;;;;;;;11.40;5.28;;;3.00;1.00;;;;;;5034275;28;20184;-80
2021/01/02 04:16:33;;;;;;;8.48;4.47;;;3.00;1.00;;;;;;5034338;28;20659;-80
2021/01/02 04:22:21;;;;;;;13.60;4.95;;;3.00;1.00;;;;;;5048263;28;20186;-80
2021/01/02 04:24:51;;;;;;;14.68;5.82;;;2.90;1.00;;;;;;5049695;28;20554;-80
2021/01/02 04:27:21;;;;;;;8.43;4.22;;;3.00;1.00;;;;;;5045482;28;20183;-80
2021/01/02 04:29:51;;;;;;;14.32;6.10;;;3.00;1.00;;;;;;5052190;28;20188;-80
2021/01/02 04:32:27;;;;;;;12.38;5.13;;;3.00;1.00;;;;;;5054231;28;20194;-80
2021/01/02 04:34:57;;;;;;;16.70;7.18;;;3.00;1.00;;;;;;5036028;28;20187;-80
2021/01/02 04:37:50;;;;;;;23.58;9.10;;;3.00;1.00;;;;;;5033239;28;20579;-74
2021/01/02 04:40:21;;;;;;;18.65;6.40;;;3.00;1.00;;;;;;5046271;28;20164;-75
2021/01/02 04:42:51;;;;;;;14.98;6.65;;;3.00;1.00;;;;;;5049032;28;20202;-75
2021/01/02 04:45:39;;;;;;;18.63;6.50;;;3.00;1.00;;;;;;5054218;28;20160;-80
2021/01/02 04:48:15;;;;;;;13.60;6.00;;;3.00;1.00;;;;;;5044772;28;20203;-80
2021/01/02 04:50:41;;;;;;;14.43;6.50;;;3.00;1.00;;;;;;5051726;28;20226;-81
2021/01/02 04:53:16;;;;;;;9.00;5.70;;;3.00;1.00;;;;;;5054109;28;20522;-80
2021/01/02 04:56:05;;;;;;;15.07;6.75;;;3.00;1.00;;;;;;5053877;28;20236;-80
2021/01/02 04:58:39;;;;;;;19.83;6.65;;;3.00;1.00;;;;;;5051803;28;20195;-80
2021/01/02 05:01:21;;;;;;;14.85;5.97;;;3.00;1.00;;;;;;5043238;28;20176;-80
2021/01/02 05:03:51;;;;;;;13.20;5.50;;;3.00;1.00;;;;;;5063321;28;20544;-80
2021/01/02 05:06:27;;;;;;;12.32;5.75;;;3.00;1.00;;;;;;5040054;28;20206;-80
2021/01/02 05:08:59;;;;;;;16.40;6.43;;;3.00;1.00;;;;;;5052165;28;20647;-80
2021/01/02 05:11:37;;;;;;;18.92;7.57;;;3.00;1.00;;;;;;5052399;28;20199;-80
2021/01/02 05:14:21;;;;;;;20.20;6.80;;;3.10;1.00;;;;;;5042888;28;20172;-80
2021/01/02 05:16:51;;;;;;;10.80;5.20;;;3.10;1.00;;;;;;5032432;28;20258;-80
2021/01/02 05:19:57;;;;;;;14.55;6.75;;;3.10;1.00;;;;;;5033394;28;20703;-82
2021/01/02 05:22:44;;;;;;;13.60;6.07;;;3.10;1.00;;;;;;5053768;28;20616;-80
2021/01/02 05:25:14;;;;;;;11.07;6.03;;;3.10;1.00;;;;;;5050828;28;20187;-75
2021/01/02 05:27:43;;;;;;;17.27;5.38;;;3.10;1.00;;;;;;5046637;28;20176;-75
2021/01/02 05:30:28;;;;;;;12.73;5.30;;;3.10;1.00;;;;;;5048937;28;20198;-75
2021/01/02 05:33:00;;;;;;;18.70;6.75;;;3.10;1.00;;;;;;5035626;28;20208;-74
2021/01/02 05:35:47;;;;;;;11.68;5.03;;;3.20;1.00;;;;;;5046250;28;20555;-74
2021/01/02 05:38:23;;;;;;;14.95;6.28;;;3.10;1.00;;;;;;5045469;28;20211;-80
2021/01/02 05:41:08;;;;;;;11.85;5.93;;;3.10;1.00;;;;;;5051275;28;20171;-80
2021/01/02 05:43:51;;;;;;;14.90;6.75;;;3.10;1.00;;;;;;5051428;28;20182;-80
2021/01/02 05:46:20;;;;;;;9.68;4.80;;;3.10;1.00;;;;;;5053195;28;20528;-80
2021/01/02 05:48:46;;;;;;;9.75;4.47;;;3.10;1.00;;;;;;5052568;28;20183;-81
2021/01/02 05:51:12;;;;;;;9.40;4.40;;;3.20;1.00;;;;;;5051767;28;20206;-81
2021/01/02 05:54:07;;;;;;;15.73;6.03;;;3.10;1.00;;;;;;5050794;28;20471;-80
2021/01/02 05:57:14;;;;;;;14.30;5.90;;;3.10;1.00;;;;;;5035278;28;20613;-81
2021/01/02 05:59:56;;;;;;;10.18;5.32;;;3.10;1.00;;;;;;5033410;28;20254;-80
2021/01/02 06:02:33;;;;;;;12.55;5.15;;;3.10;1.00;;;;;;5033253;28;20215;-80
2021/01/02 06:05:20;;;;;;;16.10;6.38;;;3.10;1.00;;;;;;5038977;28;20180;-80
2021/01/02 06:08:26;;;;;;;17.40;5.38;;;3.10;1.00;;;;;;5033779;28;20165;-80
2021/01/02 06:10:54;;;;;;;8.80;4.20;;;3.10;1.00;;;;;;5046918;28;20209;-80
2021/01/02 06:13:23;;;;;;;13.75;5.82;;;3.10;1.00;;;;;;5053073;28;20214;-80
2021/01/02 06:15:53;;;;;;;23.50;6.55;;;3.10;1.00;;;;;;5047652;28;20176;-81
2021/01/02 06:18:21;;;;;;;9.00;5.35;;;3.10;1.00;;;;;;5039618;28;20183;-80
2021/01/02 06:20:51;;;;;;;14.38;5.40;;;3.10;1.00;;;;;;5038576;28;20185;-80
2021/01/02 06:23:20;;;;;;;16.25;5.85;;;3.00;1.00;;;;;;5034972;28;20183;-75
2021/01/02 06:25:55;;;;;;;14.50;6.25;;;3.00;1.00;;;;;;5048478;28;20757;-75
2021/01/02 06:28:24;;;;;;;10.88;5.25;;;3.00;1.00;;;;;;5057108;28;20164;-75
2021/01/02 06:31:04;;;;;;;14.35;5.78;;;3.00;1.00;;;;;;5043505;28;20215;-80
2021/01/02 06:33:50;;;;;;;17.83;6.10;;;3.00;1.00;;;;;;5042901;28;20643;-80
2021/01/02 06:36:39;;;;;;;13.98;5.30;;;2.90;1.00;;;;;;5035283;28;20569;-74
2021/01/02 06:39:28;;;;;;;22.63;5.70;;;2.90;1.00;;;;;;5037042;28;20157;-80
2021/01/02 06:42:29;;;;;;;12.45;5.35;;;2.90;1.00;;;;;;5051577;28;20164;-81
2021/01/02 06:45:50;;;;;;;9.98;4.35;;;2.90;1.00;;;;;;5037405;28;20195;-80
2021/01/02 06:48:50;;;;;;;10.30;4.55;;;2.80;1.00;;;;;;5037050;28;20607;-80
2021/01/02 06:51:33;;;;;;;14.75;5.78;;;;;;;;;;5048888;28;20227;-80
2021/01/02 06:54:22;;;;;;;9.73;4.55;;;2.70;1.00;;;;;;5043410;28;20590;-80
2021/01/02 06:57:02;;;;;;;12.40;5.82;;;2.60;1.00;;;;;;5050244;28;20184;-80
2021/01/02 06:59:33;;;;;;;11.18;4.30;;;2.70;1.00;;;;;;5036203;28;20183;-80
2021/01/02 07:02:31;;;;;;;16.08;4.85;;;2.70;1.00;;;;;;5036255;28;20552;-75
2021/01/02 07:05:34;;;;;;;9.88;5.43;;;2.70;1.00;;;;;;5036279;28;20194;-74
2021/01/02 07:08:00;;;;;;;11.02;5.10;;;2.70;1.00;;;;;;5035898;28;20643;-74
2021/01/02 07:10:29;;;;;;;11.80;5.30;;;2.50;1.00;;;;;;5046658;28;20322;-74
2021/01/02 07:13:21;;;;;;;11.35;5.40;;;2.40;1.00;;;;;;5053492;28;20191;-75
2021/01/02 07:15:47;;;;;;;10.27;5.53;;;2.40;1.00;;;;;;5047286;28;20180;-75
2021/01/02 07:18:25;;;;;;;12.50;5.57;;;2.50;1.00;;;;;;5053309;28;20525;-74
2021/01/02 07:20:51;;;;;;;8.05;4.30;;;2.60;1.00;;;;;;5043605;28;20188;-75
2021/01/02 07:23:27;;;;;;;10.90;4.90;;;2.60;1.00;;;;;;5046529;28;20262;-76
2021/01/02 07:26:38;;;;;;;11.27;5.63;;;2.60;1.00;;;;;;5046733;28;20176;-80
2021/01/02 07:29:36;;;;;;;14.07;6.20;;;2.60;1.00;;;;;;5013484;28;20177;-80
2021/01/02 07:32:21;;;;;;;18.98;5.75;;;2.60;1.00;;;;;;4935861;29;20306;-80
2021/01/02 07:34:59;;;;;;;15.43;4.82;;;2.60;1.00;;;;;;4936568;29;20215;-80
2021/01/02 07:38:02;;;;;;;13.52;5.18;;;2.60;1.00;;;;;;4935791;29;20199;-80
2021/01/02 07:40:39;;;;;;;8.52;4.72;;;2.60;1.00;;;;;;4936723;29;20184;-75
2021/01/02 07:43:11;;;;;;;16.33;4.78;;;2.70;1.00;;;;;;4939609;29;20675;-74
2021/01/02 07:45:37;;;;;;;8.88;5.32;;;2.70;1.00;;;;;;4940568;29;20184;-75
2021/01/02 07:48:17;;;;;;;19.80;6.80;;;2.70;1.00;;;;;;4935946;29;20204;-78
2021/01/02 07:50:51;;;;;;;12.93;5.82;;;2.70;1.00;;;;;;4935644;29;20431;-77
2021/01/02 07:53:21;;;;;;;16.45;5.65;;;2.70;1.00;;;;;;4937837;29;20198;-76
2021/01/02 07:55:51;;;;;;;18.42;4.82;;;2.70;1.00;;;;;;4951106;29;20199;-76
2021/01/02 07:58:25;;;;;;;12.77;6.07;;;2.70;1.00;;;;;;4956456;28;20229;-74
2021/01/02 08:01:24;;;;;;;13.52;5.65;;;2.80;1.00;;;;;;4974120;28;20181;-75
2021/01/02 08:03:51;;;;;;;16.90;5.45;;;2.80;1.00;;;;;;4931329;29;20184;-74
2021/01/02 08:06:21;;;;;;;12.88;5.00;;;2.90;1.00;;;;;;4952798;29;20202;-75
2021/01/02 08:09:06;;;;;;;15.23;6.22;;;2.90;1.00;;;;;;4987489;28;20583;-80
2021/01/02 08:11:52;;;;;;;13.15;6.63;;;3.00;1.00;;;;;;5013352;28;20224;-80
2021/01/02 08:14:23;;;;;;;17.45;5.57;;;3.10;1.00;;;;;;5019625;28;20267;-81
2021/01/02 08:17:20;;;;;;;12.32;5.57;;;3.10;1.00;;;;;;5024289;28;20212;-85
2021/01/02 08:19:51;;;;;;;9.63;5.10;;;3.20;1.00;;;;;;5014511;28;20185;-81
2021/01/02 08:22:51;;;;;;;11.50;5.30;;;3.20;1.00;;;;;;5022067;28;20235;-80
2021/01/02 08:25:21;;;;;;;12.35;5.20;;;3.20;1.00;;;;;;5026537;28;20263;-80
2021/01/02 08:27:51;;;;;;;11.18;5.50;;;3.30;1.00;;;;;;5005801;28;20199;-80
2021/01/02 08:30:18;;;;;;;14.05;5.10;;;3.30;1.00;;;;;;5015720;28;20643;-80
2021/01/02 08:32:51;;;;;;;15.25;6.05;;;3.40;1.00;;;;;;5032226;28;20192;-81
2021/01/02 08:35:26;;;;;;;15.90;5.50;;;3.40;1.00;;;;;;5031726;28;20621;-80
2021/01/02 08:38:09;;;;;;;11.82;5.57;;;3.50;1.00;;;;;;5012868;28;20276;-80
2021/01/02 08:40:49;;;;;;;12.55;6.75;;;3.60;1.00;;;;;;5027392;28;20216;-75
2021/01/02 08:43:22;;;;;;;16.40;6.95;;;3.70;1.00;;;;;;5034340;28;20173;-75
2021/01/02 08:45:49;;;;;;;24.05;7.70;;;3.70;1.00;;;;;;5042495;28;20642;-75
2021/01/02 08:48:19;;;;;;;20.00;7.70;;;3.80;1.00;;;;;;5034892;28;20271;-80
2021/01/02 08:50:46;;;;;;;17.08;7.60;;;3.90;1.00;;;;;;5034039;28;20169;-75
2021/01/02 08:53:50;;;;;;;21.85;8.13;;;4.00;1.00;;;;;;5041302;28;20261;-75
2021/01/02 08:56:27;;;;;;;17.45;7.07;;;4.10;1.00;;;;;;5052711;28;20217;-75
2021/01/02 08:58:54;;;;;;;13.05;6.35;;;4.10;1.00;;;;;;5040540;28;20246;-76
2021/01/02 09:01:21;;;;;;;18.00;8.27;;;4.20;1.00;;;;;;5049371;28;20172;-75
2021/01/02 09:03:51;;;;;;;22.65;7.25;;;4.20;1.00;;;;;;5033937;28;20173;-75
2021/01/02 09:06:25;;;;;;;14.35;6.47;;;4.30;1.00;;;;;;5032210;28;20223;-75
2021/01/02 09:09:06;;;;;;;16.30;6.88;;;4.30;1.00;;;;;;5033234;28;20218;-75
2021/01/02 09:11:46;;;;;;;24.10;7.65;;;4.30;1.00;;;;;;5033200;28;20679;-81
2021/01/02 09:14:21;;;;;;;17.13;7.53;;;;;;;;;;5049882;28;20277;-81
2021/01/02 09:17:00;;;;;;;16.60;6.63;;;4.30;1.00;;;;;;5044571;28;20540;-82
2021/01/02 09:20:13;;;;;;;15.20;6.78;;;4.30;1.00;;;;;;5034301;28;20176;-81
2021/01/02 09:26:26;;;;;;;15.77;6.82;;;4.50;1.00;;;;;;5033001;28;20182;-81
2021/01/02 09:32:14;;;;;;;16.27;5.40;;;4.60;1.00;;;;;;5033491;28;20677;-81
2021/01/02 09:34:57;;;;;;;19.70;6.90;;;4.70;1.00;;;;;;5033708;28;20188;-81
2021/01/02 09:37:23;;;;;;;18.73;6.90;;;4.70;1.00;;;;;;5033249;28;20638;-82
2021/01/02 09:40:26;;;;;;;25.73;6.83;;;4.70;1.00;;;;;;5048913;28;20185;-75
2021/01/02 09:42:52;;;;;;;9.43;5.30;;;4.90;1.00;;;;;;5033793;28;20541;-75
2021/01/02 09:45:27;;;;;;;12.17;6.50;;;5.00;1.00;;;;;;5034056;28;20175;-75
2021/01/02 09:47:53;;;;;;;15.80;6.13;;;5.00;1.00;;;;;;5036402;28;20195;-75
2021/01/02 09:50:27;;;;;;;12.73;5.90;;;5.10;1.00;;;;;;5052413;28;20184;-75
2021/01/02 09:52:53;;;;;;;13.88;5.28;;;5.20;1.00;;;;;;5052978;28;20928;-75
2021/01/02 09:55:19;;;;;;;11.43;5.97;;;5.30;1.00;;;;;;5050704;28;20182;-75
2021/01/02 09:57:49;;;;;;;13.60;6.10;;;5.40;1.00;;;;;;5054146;28;20163;-75
2021/01/02 10:00:17;;;;;;;10.95;5.57;;;5.40;1.00;;;;;;5056423;28;20195;-75
2021/01/02 10:02:51;;;;;;;10.85;6.15;;;5.60;1.00;;;;;;5057414;28;20168;-75
2021/01/02 10:05:38;;;;;;;10.70;5.75;;;5.60;1.00;;;;;;5055318;28;20193;-75
2021/01/02 10:08:05;;;;;;;11.15;6.10;;;5.70;1.00;;;;;;5053909;28;20165;-73
2021/01/02 10:10:33;;;;;;;13.05;5.53;;;5.80;1.00;;;;;;5042299;28;20247;-81
2021/01/02 10:12:59;;;;;;;10.43;5.50;;;;;;;;;;5056076;28;20676;-81
2021/01/02 10:18:57;;;;;;;11.70;4.77;;;6.00;1.00;;;;;;5049001;28;20413;-81
2021/01/02 10:21:27;;;;;;;8.63;4.90;;;6.00;1.00;;;;;;5054708;28;20422;-81
2021/01/02 10:24:28;;;;;;;8.57;4.43;;;6.10;1.00;;;;;;5036933;28;20403;-81
2021/01/02 10:26:54;;;;;;;7.93;3.70;;;6.20;1.00;;;;;;5037270;28;20399;-75
2021/01/02 10:29:20;;;;;;;9.23;5.07;;;;;;;;;;5036708;28;20426;-74
2021/01/02 10:31:51;;;;;;;10.03;4.30;;;6.10;1.00;;;;;;5040690;28;20234;-74
2021/01/02 10:34:17;;;;;;;8.17;4.83;;;6.10;1.00;;;;;;5056880;28;20398;-74
2021/01/02 10:36:46;;;;;;;11.23;4.63;;;6.10;1.00;;;;;;5048277;28;20415;-75
2021/01/02 10:39:32;;;;;;;7.88;3.75;;;6.10;1.00;;;;;;5045715;28;20237;-74
2021/01/02 10:41:58;;;;;;;7.45;4.25;;;6.20;1.00;;;;;;5052667;28;20172;-74
2021/01/02 10:44:24;;;;;;;6.80;3.90;;;;;;;;;;5036602;28;20214;-75
2021/01/02 10:46:52;;;;;;;5.80;3.43;;;6.20;1.00;;;;;;5052106;28;20274;-74
2021/01/02 10:49:22;;;;;;;8.00;4.00;;;6.30;1.00;;;;;;5040900;28;20422;-75
2021/01/02 10:51:51;;;;;;;6.20;3.60;;;6.20;1.00;;;;;;5048837;28;20458;-78
2021/01/02 10:54:18;;;;;;;8.80;3.93;;;6.20;1.00;;;;;;5043427;28;20427;-77
2021/01/02 10:57:09;;;;;;;8.20;3.83;;;6.10;1.00;;;;;;5036376;28;20419;-80
2021/01/02 10:59:52;;;;;;;8.07;3.90;;;6.20;1.00;;;;;;5039945;28;20537;-80
2021/01/02 11:02:27;;;;;;;8.47;3.70;;;6.30;1.00;;;;;;5056115;28;20402;-80
2021/01/02 11:05:15;;;;;;;6.00;3.50;;;6.40;1.00;;;;;;5053015;28;20483;-81
2021/01/02 11:08:03;;;;;;;7.37;3.13;;;6.40;1.00;;;;;;5055862;28;20505;-80
2021/01/02 11:10:33;;;;;;;9.97;4.50;;;6.50;1.00;;;;;;5053379;28;20426;-81
2021/01/02 11:13:09;;;;;;;6.37;3.50;;;6.60;1.00;;;;;;5053943;28;20446;-78
2021/01/02 11:15:39;;;;;;;5.80;3.73;;;6.60;1.00;;;;;;5058812;28;20933;-79
2021/01/02 11:18:39;;;;;;;6.70;2.97;;;6.60;1.00;;;;;;5046065;28;20430;-80
2021/01/02 11:21:11;;;;;;;7.23;4.37;;;6.60;1.00;;;;;;5036133;28;20419;-80
2021/01/02 11:23:39;;;;;;;6.53;3.60;;;6.40;1.00;;;;;;5053232;28;20464;-79
2021/01/02 11:26:09;;;;;;;3.93;3.00;;;6.50;1.00;;;;;;5045317;28;20419;-73
2021/01/02 11:28:35;;;;;;;9.70;4.47;;;6.70;1.00;;;;;;5052517;28;20402;-73
2021/01/02 11:31:01;;;;;;;27.93;7.87;;;6.70;1.00;;;;;;5055000;28;20865;-74
2021/01/02 11:33:26;;;;;;;20.47;6.47;;;6.70;1.00;;;;;;5037167;28;20431;-74
2021/01/02 11:35:57;;;;;;;11.50;5.77;;;6.70;1.00;;;;;;5033684;28;20185;-75
2021/01/02 11:38:23;;;;;;;6.33;3.10;;;6.90;1.00;;;;;;5034916;28;20243;-74
2021/01/02 11:40:52;;;;;;;11.43;4.43;;;7.20;1.00;;;;;;5034785;28;20499;-74
2021/01/02 11:43:18;;;;;;;12.27;4.00;;;7.40;1.00;;;;;;5035048;28;20188;-75
2021/01/02 11:45:47;;;;;;;11.20;3.63;;;7.40;1.00;;;;;;5035003;28;20442;-75
2021/01/02 11:48:14;;;;;;;7.67;3.00;;;7.40;1.00;;;;;;5036498;28;20391;-74
2021/01/02 11:50:41;;;;;;;6.03;3.30;;;7.50;1.00;;;;;;5054794;28;20984;-74
2021/01/02 11:53:10;;;;;;;8.40;3.77;;;;;;;;;;5054560;28;20450;-74
2021/01/02 11:55:41;;;;;;;7.73;3.50;;;7.50;1.00;;;;;;5053724;28;20408;-74
2021/01/02 11:58:23;;;;;;;4.93;3.70;;;7.50;1.00;;;;;;5053052;28;20418;-79
2021/01/02 12:00:57;;;;;;;6.47;3.60;;;7.40;1.00;;;;;;5054701;28;20881;-79
2021/01/02 12:03:27;;;;;;;4.87;2.97;;;7.40;1.00;;;;;;5054232;28;20945;-79
2021/01/02 12:05:53;;;;;;;2.30;1.83;;;7.40;1.00;;;;;;5042436;28;21019;-79
2021/01/02 12:08:19;;;;;;;4.73;2.47;;;;;;;;;;5054312;28;20477;-79
2021/01/02 12:10:45;;;;;;;14.10;4.77;;;7.20;1.00;;;;;;5043580;28;20172;-79
2021/01/02 12:13:12;;;;;;;11.13;3.20;;;7.00;1.00;;;;;;5042462;28;20450;-79
2021/01/02 12:15:49;;;;;;;2.80;2.00;;;6.80;1.00;;;;;;5046127;28;20547;-79
2021/01/02 12:18:22;;;;;;;6.37;2.77;;;6.80;1.00;;;;;;5040752;28;20413;-79
2021/01/02 12:20:51;;;;;;;4.10;2.63;;;6.90;1.00;;;;;;5053999;28;20391;-79
2021/01/02 12:23:21;;;;;;;1.57;1.47;;;6.90;1.00;;;;;;5042008;28;20898;-79
2021/01/02 12:25:52;;;;;;;3.47;2.20;;;6.70;1.00;;;;;;5034314;28;20425;-79
2021/01/02 12:28:45;;;;;;;7.53;2.07;;;6.70;1.00;;;;;;5039672;28;20168;-79
2021/01/02 12:31:28;;;;;;;6.00;3.03;;;6.40;1.00;;;;;;5054284;28;20388;-79
2021/01/02 12:34:14;;;;;;;3.43;2.10;;;6.50;1.00;;;;;;5034464;28;20399;-79
2021/01/02 12:36:52;;;;;;;2.13;1.93;;;6.30;1.00;;;;;;5034206;28;20390;-78
2021/01/02 12:42:40;;;;;;;1.80;1.00;;;;;;;;;;5047625;28;20923;-74
2021/01/02 12:45:08;;;;;;;2.83;2.07;;;6.20;1.00;;;;;;5035759;28;21001;-74
2021/01/02 12:47:34;;;;;;;2.37;1.73;;;6.20;1.00;;;;;;5042833;28;20415;-74
2021/01/02 12:50:00;;;;;;;1.37;1.27;;;6.10;1.00;;;;;;5036596;28;20757;-73
2021/01/02 12:52:29;;;;;;;1.10;1.00;;;6.30;1.00;;;;;;5042274;28;20204;-74
2021/01/02 12:54:56;;;;;;;9.63;2.00;;;6.60;1.00;;;;;;5054231;28;20394;-72
2021/01/02 12:57:39;;;;;;;11.13;1.47;;;6.90;1.00;;;;;;5038163;28;20411;-77
2021/01/02 13:00:05;;;;;;;3.03;1.47;;;7.10;1.00;;;;;;5039299;28;20437;-77
2021/01/02 13:02:31;;;;;;;1.50;1.00;;;7.40;1.00;;;;;;5051564;28;20433;-77
2021/01/02 13:05:10;;;;;;;1.90;1.30;;;8.10;1.00;;;;;;5036141;28;20502;-77
2021/01/02 13:07:51;;;;;;;4.63;2.60;;;8.20;1.00;;;;;;5053924;28;20187;-78
2021/01/02 13:10:17;;;;;;;1.53;1.43;;;8.20;1.00;;;;;;5050723;28;20997;-78
2021/01/02 13:12:43;;;;;;;1.23;1.00;;;;;;;;;;5053824;28;20529;-74
2021/01/02 13:15:09;;;;;;;1.57;1.43;;;7.90;1.00;;;;;;5053389;28;20164;-74
2021/01/02 13:17:35;;;;;;;1.30;1.13;;;;;;;;;;5053373;28;20482;-74
2021/01/02 13:20:01;;;;;;;2.30;1.20;;;7.50;1.00;;;;;;5033444;28;20848;-74
2021/01/02 13:22:27;;;;;;;1.17;1.00;;;;;;;;;;5033193;28;20407;-74
2021/01/02 13:24:53;;;;;;;1.37;1.20;;;;;;;;;;5033746;28;20173;-74
2021/01/02 13:27:19;;;;;;;1.33;1.10;;;;;;;;;;5034232;28;20399;-77
2021/01/02 13:29:57;;;;;;;1.17;0.90;;;7.00;1.00;;;;;;5033864;28;20419;-79
2021/01/02 13:33:00;;;;;;;0.77;0.77;;;7.00;1.00;;;;;;5033579;28;20434;-79
2021/01/02 13:35:33;;;;;;;0.90;0.90;;;6.80;1.00;;;;;;5040775;28;20509;-79
2021/01/02 13:38:38;;;;;;;0.70;0.70;;;6.80;1.00;;;;;;5053322;28;20881;-78
2021/01/02 13:41:16;;;;;;;6.30;3.20;;;6.60;1.00;;;;;;5057542;28;20394;-78
2021/01/02 13:43:42;;;;;;;1.83;1.43;;;6.50;1.00;;;;;;5057679;28;20749;-74
2021/01/02 13:46:08;;;;;;;0.90;0.90;;;6.30;1.00;;;;;;5057448;28;20398;-74
2021/01/02 13:48:39;;;;;;;1.00;1.00;;;6.20;1.00;;;;;;5057336;28;20409;-74
2021/01/02 13:51:05;;;;;;;2.47;1.40;;;6.00;1.00;;;;;;5057489;28;20162;-76
2021/01/02 13:53:39;;;;;;;5.83;3.07;;;6.10;1.00;;;;;;5048498;28;20454;-75
2021/01/02 13:56:15;;;;;;;1.73;1.63;;;;;;;;;;5037626;28;20187;-75
2021/01/02 13:58:44;;;;;;;2.30;1.67;;;5.90;1.00;;;;;;5055109;28;20210;-76
2021/01/02 14:01:10;;;;;;;3.10;1.90;;;;;;;;;;5050215;28;20457;-75
2021/01/02 14:03:37;;;;;;;1.98;1.70;;;5.90;1.00;;;;;;5046645;28;20455;-75
2021/01/02 14:06:04;;;;;;;3.90;1.27;;;5.80;1.00;;;;;;5036063;28;20652;-75
2021/01/02 14:08:42;;;;;;;1.30;1.20;;;5.80;1.00;;;;;;5037724;28;20913;-75
2021/01/02 14:11:19;;;;;;;1.45;1.30;;;5.70;1.00;;;;;;5036669;28;20636;-73
2021/01/02 14:13:46;;;;;;;1.00;1.00;;;5.80;1.00;;;;;;5043519;28;20167;-73
2021/01/02 14:16:13;;;;;;;3.05;1.20;;;5.80;1.00;;;;;;5056981;28;20633;-74
2021/01/02 14:18:39;;;;;;;2.50;1.27;;;5.80;1.00;;;;;;5056883;28;20510;-73